Latest Weather Observations for Moorabbin Airport

IDV60801

Issued at 7:05 am EST Wednesday 17 September 2014 (issued every 30 minutes, with the page automatically refreshed every 10 minutes)

About weather observations | Map of weather stations | Latest weather observations for VIC | Other Formats
Station Details ID: 086077 Name: MOORABBIN AIRPORT Lat: -37.98 Lon: 145.10 Height: 12.1 m
Data from the previous 72 hours. | See also: Recent months at Moorabbin Airport
Date/Time
EST
Temp
°C
App
Temp
°C
Dew
Point
Rel
Hum
%
Delta-T
°C
Wind Press
QNH
hPa
Press
MSL
hPa
Rain
since 9 am
mm
Dir
 
Spd
km/h
Gust
km/h
Spd
kts
Gust
kts
17/07:00am 10.3 5.9 7.5 83 1.3 W 20 28 11 15 1013.0 1013.0 0.6
17/06:30am 10.4 6.0 7.6 83 1.3 W 20 33 11 18 1012.8 1012.8 0.6
17/06:00am 10.7 6.6 7.8 82 1.4 W 19 30 10 16 1012.7 1012.7 0.6
17/05:30am 10.1 6.8 8.2 88 0.9 NW 15 26 8 14 1012.6 1012.6 0.6
17/05:00am 10.3 6.0 7.9 85 1.2 WNW 20 32 11 17 1012.5 1012.5 0.6
17/04:30am 10.0 7.0 7.8 86 1.1 NNW 13 19 7 10 1012.4 1012.4 0.4
17/04:00am 9.6 7.4 8.0 90 0.8 NNW 9 15 5 8 1012.3 1012.3 0.2
17/03:30am 9.3 7.0 7.3 87 0.9 NNW 9 13 5 7 1012.3 1012.3 0.2
17/03:00am 9.1 6.7 7.2 88 0.9 NNW 9 13 5 7 1012.6 1012.6 0.2
17/02:30am 8.6 6.1 6.7 88 0.9 NW 9 11 5 6 1012.6 1012.6 0.2
17/02:00am 8.6 5.7 6.4 86 1.0 NNW 11 15 6 8 1012.6 1012.6 0.2
17/01:30am 9.4 6.6 6.8 84 1.2 NNW 11 15 6 8 1012.9 1012.9 0.2
17/01:00am 9.1 6.6 6.7 85 1.1 NNW 9 13 5 7 1013.0 1013.0 0.2
17/12:30am 9.1 6.2 6.5 84 1.2 NNW 11 13 6 7 1013.2 1013.2 0.2
17/12:00am 8.9 6.0 6.7 86 1.0 N 11 13 6 7 1013.1 1013.1 0.2
 
Date/Time
EST
Temp
°C
App
Temp
°C
Dew
Point
Rel
Hum
%
Delta-T
°C
Wind Press
QNH
hPa
Press
MSL
hPa
Rain
since 9 am
mm
Dir
 
Spd
km/h
Gust
km/h
Spd
kts
Gust
kts
16/11:30pm 9.5 7.1 6.8 83 1.3 N 9 13 5 7 1013.2 1013.2 0.2
16/11:00pm 10.3 7.7 7.7 84 1.2 NW 11 17 6 9 1013.6 1013.6 0.2
16/10:30pm 10.1 7.7 7.0 81 1.5 NNW 9 13 5 7 1013.6 1013.6 0.2
16/10:00pm 10.6 8.1 6.7 77 1.8 WNW 9 13 5 7 1013.6 1013.6 0.2
16/09:30pm 11.6 8.1 7.1 74 2.2 WSW 15 24 8 13 1013.5 1013.5 0.2
16/09:00pm 11.7 7.8 7.2 74 2.2 SW 17 24 9 13 1013.4 1013.4 0.2
16/08:30pm 11.9 7.6 7.2 73 2.3 SW 19 30 10 16 1013.3 1013.3 0.2
16/08:00pm 12.0 7.2 7.3 73 2.3 SW 22 30 12 16 1013.1 1013.1 0.2
16/07:30pm 12.0 8.0 8.1 77 1.9 SW 19 28 10 15 1012.7 1012.7 0.2
16/07:00pm 12.2 7.3 8.5 78 1.8 SW 24 33 13 18 1012.5 1012.5 0.2
16/06:30pm 12.5 7.7 9.0 79 1.8 SW 24 35 13 19 1012.3 1012.3 0.2
16/06:00pm 12.9 8.3 9.5 80 1.7 SW 24 32 13 17 1011.9 1011.9 0.2
16/05:30pm 13.1 8.1 9.5 79 1.8 SW 26 35 14 19 1011.7 1011.7 0.2
16/05:00pm 13.1 8.1 9.7 80 1.7 SW 26 37 14 20 1011.4 1011.4 0.2
16/04:30pm 13.1 8.5 9.7 80 1.7 SW 24 33 13 18 1011.0 1011.0 0.2
16/04:00pm 13.1 8.9 9.9 81 1.6 SW 22 33 12 18 1010.8 1010.8 0.2
16/03:30pm 13.0 8.4 9.8 81 1.6 SW 24 39 13 21 1010.5 1010.5 0.2
16/03:00pm 13.2 8.3 10.0 81 1.7 SW 26 39 14 21 1010.2 1010.2 0.2
16/02:30pm 13.4 8.4 10.9 85 1.3 SW 28 37 15 20 1009.8 1009.8 0.2
16/02:25pm 13.4 8.4 10.9 85 1.3 SW 28 35 15 19 1009.8 1009.8 0.2
16/02:00pm 13.2 9.2 11.9 92 0.7 SW 24 35 13 19 1009.6 1009.6 0.2
16/01:47pm 13.1 9.3 12.3 95 0.4 SW 24 39 13 21 1009.5 1009.5 0.2
16/01:33pm 13.0 9.0 11.9 93 0.6 SW 24 41 13 22 1009.4 1009.4 0.2
16/01:30pm 13.1 9.5 11.8 92 0.7 WSW 22 41 12 22 1009.5 1009.5 0.2
16/01:28pm 13.3 10.1 12.0 92 0.7 WSW 20 30 11 16 1009.4 1009.4 0.2
16/01:00pm 14.0 11.2 12.6 91 0.8 WSW 19 24 10 13 1009.3 1009.3 0.0
16/12:30pm 13.9 11.6 11.9 88 1.1 WSW 15 20 8 11 1009.6 1009.6 0.0
16/12:00pm 13.6 11.7 11.7 88 1.0 WSW 13 19 7 10 1009.8 1009.8 0.0
16/11:30am 13.9 11.4 11.2 84 1.4 WSW 15 19 8 10 1009.8 1009.8 0.0
16/11:00am 13.9 11.1 11.4 85 1.3 SW 17 22 9 12 1009.7 1009.7 0.0
16/10:30am 13.8 10.7 11.5 86 1.2 W 19 28 10 15 1009.5 1009.5 0.0
16/10:00am 13.5 10.8 11.6 88 1.0 W 17 24 9 13 1009.4 1009.4 0.0
16/09:30am 12.8 9.6 11.2 90 0.8 WNW 19 26 10 14 1009.4 1009.4 0.0
16/09:00am 12.9 9.7 11.3 90 0.8 W 19 28 10 15 1009.4 1009.4 0.2
16/08:30am 13.2 10.9 11.8 91 0.7 W 15 20 8 11 1009.3 1009.3 0.2
16/08:27am 13.2 10.9 11.9 92 0.7 W 15 20 8 11 1009.3 1009.3 0.2
16/08:21am 13.0 11.1 11.9 93 0.6 W 13 20 7 11 1009.1 1009.1 0.2
16/08:00am 12.5 11.4 11.9 96 0.3 WNW 9 15 5 8 1009.1 1009.1 0.2
16/07:30am 11.6 10.3 11.3 98 0.2 NW 9 11 5 6 1009.0 1009.0 0.2
16/07:26am 11.6 10.7 11.3 98 0.2 NW 7 9 4 5 1008.9 1008.9 0.2
16/07:23am 11.5 10.6 11.2 98 0.2 NW 7 9 4 5 1008.9 1008.9 0.2
16/07:00am 11.3 10.5 11.0 98 0.2 W 6 9 3 5 1008.6 1008.6 0.2
16/06:30am 11.3 11.3 11.1 99 0.1 W 2 7 1 4 1008.5 1008.5 0.2
16/06:00am 11.2 10.2 11.0 99 0.1 N 7 11 4 6 1008.0 1008.0 0.2
16/05:30am 11.0 9.9 10.8 99 0.1 N 7 11 4 6 1007.8 1007.8 0.2
16/05:07am 9.1 8.1 8.8 98 0.1 N 4 9 2 5 1007.5 1007.5 0.2
16/05:00am 8.8 8.1 8.5 98 0.1 N 2 6 1 3 1007.5 1007.5 0.2
16/04:48am 8.8 7.3 8.5 98 0.1 NNW 6 7 3 4 1007.5 1007.5 0.2
16/04:30am 8.6 7.0 8.2 97 0.2 NNE 6 7 3 4 1007.3 1007.3 0.2
16/04:28am 8.5 6.9 8.1 97 0.2 NNE 6 7 3 4 1007.3 1007.3 0.2
16/04:00am 7.9 6.1 7.3 96 0.3 N 6 7 3 4 1007.2 1007.2 0.2
16/03:30am 9.4 7.4 8.6 95 0.4 N 9 11 5 6 1007.1 1007.1 0.2
16/03:00am 9.8 9.4 8.4 91 0.7 CALM 0 0 0 0 1007.1 1007.1 0.2
16/02:30am 10.9 10.8 9.3 90 0.8 CALM 0 0 0 0 1007.3 1007.3 0.2
16/02:00am 11.6 9.9 9.7 88 1.0 ENE 9 11 5 6 1007.5 1007.5 0.2
16/01:30am 12.2 9.4 10.1 87 1.1 ESE 15 20 8 11 1007.6 1007.6 0.2
16/01:00am 12.4 9.3 10.3 87 1.1 ESE 17 22 9 12 1008.0 1008.0 0.2
16/12:30am 12.4 8.8 10.0 85 1.2 ESE 19 26 10 14 1008.2 1008.2 0.2
16/12:00am 12.5 9.3 10.0 85 1.3 ESE 17 22 9 12 1008.3 1008.3 0.2
 
Date/Time
EST
Temp
°C
App
Temp
°C
Dew
Point
Rel
Hum
%
Delta-T
°C
Wind Press
QNH
hPa
Press
MSL
hPa
Rain
since 9 am
mm
Dir
 
Spd
km/h
Gust
km/h
Spd
kts
Gust
kts
15/11:30pm 12.5 9.3 10.0 85 1.3 ESE 17 20 9 11 1008.5 1008.5 0.2
15/11:00pm 12.5 9.3 10.0 85 1.3 SE 17 22 9 12 1008.8 1008.8 0.2
15/10:30pm 12.6 9.7 9.8 83 1.4 ESE 15 19 8 10 1009.0 1009.0 0.2
15/10:00pm 12.9 9.8 10.3 84 1.3 ESE 17 22 9 12 1009.1 1009.1 0.2
15/09:30pm 13.1 9.7 10.5 84 1.4 ESE 19 26 10 14 1009.1 1009.1 0.2
15/09:00pm 13.3 10.3 10.7 84 1.4 ESE 17 24 9 13 1009.4 1009.4 0.2
15/08:30pm 13.5 10.1 10.7 83 1.5 ESE 19 24 10 13 1009.5 1009.5 0.0
15/08:00pm 13.9 10.4 10.9 82 1.6 ESE 20 30 11 16 1009.7 1009.7 0.0
15/07:30pm 14.0 11.0 10.8 81 1.7 ESE 17 22 9 12 1009.7 1009.7 0.0
15/07:00pm 14.1 11.0 10.3 78 2.0 SE 17 24 9 13 1009.7 1009.7 0.0
15/06:30pm 14.4 11.0 10.4 77 2.1 ESE 19 26 10 14 1009.5 1009.5 0.0
15/06:00pm 14.7 10.7 10.5 76 2.2 ESE 22 30 12 16 1009.4 1009.4 0.0
15/05:30pm 15.0 10.6 10.4 74 2.4 E 24 30 13 16 1009.4 1009.4 0.0
15/05:00pm 15.7 10.8 9.8 68 3.1 ESE 26 35 14 19 1009.7 1009.7 0.0
15/04:30pm 15.8 11.6 9.7 67 3.2 ESE 22 32 12 17 1009.8 1009.8 0.0
15/04:00pm 16.7 12.5 9.6 63 3.7 ESE 22 32 12 17 1010.6 1010.6 0.0
15/03:30pm 16.9 13.2 10.3 65 3.5 ESE 20 28 11 15 1010.5 1010.5 0.0
15/03:00pm 16.8 11.7 9.2 61 3.9 ESE 26 33 14 18 1010.4 1010.4 0.0
15/02:30pm 16.8 12.2 9.5 62 3.8 ESE 24 32 13 17 1011.0 1011.0 0.0
15/02:00pm 16.8 13.5 9.7 63 3.7 SE 17 24 9 13 1011.9 1011.9 0.0
15/01:30pm 16.9 13.0 9.6 62 3.8 SE 20 24 11 13 1011.9 1011.9 0.0
15/01:00pm 17.2 14.1 10.2 63 3.7 ESE 17 22 9 12 1012.3 1012.3 0.0
15/12:30pm 15.6 13.0 10.6 72 2.6 ESE 15 17 8 9 1013.0 1013.0 0.0
15/12:00pm 14.6 12.1 9.8 73 2.5 ESE 13 17 7 9 1013.6 1013.6 0.0
15/11:30am 14.0 11.9 9.6 75 2.3 ESE 11 15 6 8 1014.2 1014.2 0.0
15/11:00am 12.8 10.3 9.8 82 1.5 ESE 13 15 7 8 1014.7 1014.7 0.0
15/10:30am 12.1 9.9 9.5 84 1.3 SE 11 17 6 9 1015.5 1015.5 0.0
15/10:00am 12.0 10.5 9.0 82 1.5 ESE 7 11 4 6 1016.0 1016.0 0.0
15/09:30am 11.7 11.6 9.3 85 1.2 CALM 0 0 0 0 1016.2 1016.2 0.0
15/09:00am 11.1 9.9 9.5 90 0.8 SE 6 9 3 5 1016.6 1016.6 0.0
15/08:30am 10.7 9.3 9.6 93 0.6 E 7 9 4 5 1016.6 1016.6 0.0
15/08:00am 10.2 8.4 9.6 96 0.3 E 9 9 5 5 1016.7 1016.7 0.0
15/07:30am 9.6 8.1 9.1 97 0.2 ESE 7 9 4 5 1016.7 1016.7 0.0
15/07:00am 8.8 7.7 8.4 97 0.2 SSE 4 7 2 4 1016.8 1016.8 0.0
15/06:30am 8.2 7.7 7.8 97 0.2 CALM 0 0 0 0 1016.8 1016.8 0.0
15/06:00am 8.0 7.4 7.6 97 0.2 CALM 0 0 0 0 1016.8 1016.8 0.0
15/05:30am 7.9 7.3 7.5 97 0.2 CALM 0 0 0 0 1016.6 1016.6 0.0
15/05:00am 7.7 6.7 7.3 97 0.2 NNW 2 6 1 3 1016.8 1016.8 0.0
15/04:30am 7.6 6.6 7.2 97 0.2 N 2 9 1 5 1016.7 1016.7 0.0
15/04:00am 7.7 4.9 7.1 96 0.3 ESE 11 13 6 7 1016.3 1016.3 0.0
15/03:30am 8.0 4.9 7.2 95 0.4 ESE 13 15 7 8 1016.4 1016.4 0.0
15/03:00am 8.7 7.1 7.9 95 0.4 SE 6 7 3 4 1017.1 1017.1 0.0
15/02:30am 8.8 8.3 8.0 95 0.4 CALM 0 0 0 0 1017.4 1017.4 0.0
15/02:00am 8.3 7.7 7.5 95 0.4 CALM 0 0 0 0 1017.5 1017.5 0.0
15/01:30am 8.6 8.1 7.8 95 0.4 CALM 0 0 0 0 1018.2 1018.2 0.0
15/01:00am 8.7 8.2 7.9 95 0.4 CALM 0 0 0 0 1018.5 1018.5 0.0
15/12:30am 8.8 8.3 7.7 93 0.5 CALM 0 0 0 0 1018.6 1018.6 0.0
15/12:00am 9.4 7.8 8.2 92 0.6 S 6 6 3 3 1018.8 1018.8 0.0
 
Date/Time
EST
Temp
°C
App
Temp
°C
Dew
Point
Rel
Hum
%
Delta-T
°C
Wind Press
QNH
hPa
Press
MSL
hPa
Rain
since 9 am
mm
Dir
 
Spd
km/h
Gust
km/h
Spd
kts
Gust
kts
14/11:30pm 9.9 8.3 8.7 92 0.6 SSW 7 9 4 5 1019.1 1019.1 0.0
14/11:00pm 9.8 8.3 8.6 92 0.6 S 6 7 3 4 1019.3 1019.3 0.0
14/10:30pm 9.6 7.8 8.0 90 0.8 S 7 9 4 5 1019.5 1019.5 0.0
14/10:00pm 10.1 8.1 8.5 90 0.8 SE 9 11 5 6 1019.4 1019.4 0.0
14/09:30pm 10.4 8.0 8.7 89 0.8 SSE 11 13 6 7 1019.3 1019.3 0.0
14/09:00pm 10.5 8.0 8.4 87 1.0 SE 11 13 6 7 1019.4 1019.4 0.0
14/08:30pm 10.7 8.2 8.3 85 1.2 SE 11 13 6 7 1019.5 1019.5 0.0
14/08:00pm 11.4 8.7 8.8 84 1.3 SE 13 17 7 9 1019.5 1019.5 0.0
14/07:30pm 11.3 8.4 8.2 81 1.5 SE 13 17 7 9 1019.2 1019.2 0.0
14/07:00pm 12.1 9.3 8.4 78 1.8 SE 13 17 7 9 1019.0 1019.0 0.0
14/06:30pm 12.8 9.1 8.1 73 2.3 SE 17 22 9 12 1018.8 1018.8 0.0
14/06:00pm 13.7 9.2 7.0 64 3.2 SE 20 28 11 15 1018.4 1018.4 0.0
14/05:30pm 15.0 10.7 7.8 62 3.6 SE 20 26 11 14 1018.2 1018.2 0.0
14/05:00pm 16.4 12.2 8.4 59 4.1 SE 20 26 11 14 1018.0 1018.0 0.0
14/04:30pm 15.8 12.1 8.1 60 3.9 S 17 22 9 12 1018.1 1018.1 0.0
14/04:00pm 16.5 11.9 6.6 52 4.9 S 20 28 11 15 1018.2 1018.2 0.0
14/03:30pm 16.7 12.0 5.9 49 5.2 S 20 24 11 13 1018.2 1018.2 0.0
14/03:00pm 17.2 13.0 7.3 52 4.9 S 19 22 10 12 1018.3 1018.3 0.0
14/02:30pm 16.9 13.1 7.5 54 4.7 S 17 20 9 11 1018.5 1018.5 0.0
14/02:00pm 16.4 12.3 6.2 51 5.0 S 17 20 9 11 1018.8 1018.8 0.0
14/01:30pm 15.6 11.5 7.9 60 3.9 SSW 19 22 10 12 1019.1 1019.1 0.0
14/01:00pm 16.7 13.0 7.9 56 4.4 SSW 17 20 9 11 1019.4 1019.4 0.0
14/12:30pm 16.8 13.5 8.0 56 4.5 SSW 15 19 8 10 1019.9 1019.9 0.0
14/12:00pm 16.8 14.1 7.4 54 4.7 SSW 11 15 6 8 1020.2 1020.2 0.0
14/11:30am 16.3 14.1 9.3 63 3.6 SSW 11 15 6 8 1020.6 1020.6 0.0
14/11:00am 15.4 13.4 8.6 64 3.4 S 9 13 5 7 1021.1 1021.1 0.0
14/10:30am 15.4 12.8 9.3 67 3.1 S 13 19 7 10 1021.5 1021.5 0.0
14/10:00am 15.3 13.0 7.3 59 3.9 N 9 11 5 6 1021.7 1021.7 0.0
14/09:30am 14.5 12.7 7.8 64 3.3 NNW 7 11 4 6 1021.7 1021.7 0.0
14/09:00am 13.1 10.6 8.2 72 2.4 N 11 13 6 7 1021.6 1021.6 0.0
14/08:30am 11.8 9.6 7.9 77 1.9 N 9 11 5 6 1021.8 1021.8 0.0
14/08:00am 9.6 7.9 8.4 92 0.6 N 7 9 4 5 1021.6 1021.6 0.0
14/07:30am 7.2 6.4 6.5 95 0.3 CALM 0 0 0 0 1021.4 1021.4 0.0

Other Formats:

Comma delimited format used in spreadsheet applications
http://www.bom.gov.au/fwo/IDV60801/IDV60801.94870.axf

JavaScript Object Notation format (JSON) in row-major order
http://www.bom.gov.au/fwo/IDV60801/IDV60801.94870.json